sensor_id;sensor_type;location;lat;lon;timestamp;P1;durP1;ratioP1;P2;durP2;ratioP2
1725;SDS011;41776;48.260;8.928;2023-07-29T00:00:10;1.80;;;1.40;;
1725;SDS011;41776;48.260;8.928;2023-07-29T00:02:37;2.58;;;1.63;;
1725;SDS011;41776;48.260;8.928;2023-07-29T00:05:04;2.03;;;1.45;;
1725;SDS011;41776;48.260;8.928;2023-07-29T00:07:32;2.08;;;1.35;;
1725;SDS011;41776;48.260;8.928;2023-07-29T00:09:59;1.92;;;1.30;;
1725;SDS011;41776;48.260;8.928;2023-07-29T00:12:26;3.45;;;1.35;;
1725;SDS011;41776;48.260;8.928;2023-07-29T00:14:53;1.60;;;1.25;;
1725;SDS011;41776;48.260;8.928;2023-07-29T00:17:19;1.67;;;1.40;;
1725;SDS011;41776;48.260;8.928;2023-07-29T00:19:46;3.08;;;1.60;;
1725;SDS011;41776;48.260;8.928;2023-07-29T00:22:15;1.63;;;1.30;;
1725;SDS011;41776;48.260;8.928;2023-07-29T00:24:54;3.75;;;1.38;;
1725;SDS011;41776;48.260;8.928;2023-07-29T00:27:22;1.40;;;1.10;;
1725;SDS011;41776;48.260;8.928;2023-07-29T00:29:49;1.55;;;1.42;;
1725;SDS011;41776;48.260;8.928;2023-07-29T00:32:15;2.45;;;1.42;;
1725;SDS011;41776;48.260;8.928;2023-07-29T00:34:42;2.55;;;1.30;;
1725;SDS011;41776;48.260;8.928;2023-07-29T00:37:12;2.08;;;1.48;;
1725;SDS011;41776;48.260;8.928;2023-07-29T00:39:38;2.72;;;1.40;;
1725;SDS011;41776;48.260;8.928;2023-07-29T00:42:06;2.30;;;1.40;;
1725;SDS011;41776;48.260;8.928;2023-07-29T00:44:33;4.85;;;1.50;;
1725;SDS011;41776;48.260;8.928;2023-07-29T00:47:00;1.80;;;1.45;;
1725;SDS011;41776;48.260;8.928;2023-07-29T00:49:33;3.47;;;1.17;;
1725;SDS011;41776;48.260;8.928;2023-07-29T00:51:59;2.58;;;1.35;;
1725;SDS011;41776;48.260;8.928;2023-07-29T00:54:26;2.70;;;1.52;;
1725;SDS011;41776;48.260;8.928;2023-07-29T00:56:53;2.58;;;1.30;;
1725;SDS011;41776;48.260;8.928;2023-07-29T00:59:21;1.85;;;1.45;;
1725;SDS011;41776;48.260;8.928;2023-07-29T01:01:48;1.77;;;1.17;;
1725;SDS011;41776;48.260;8.928;2023-07-29T01:04:14;5.22;;;1.73;;
1725;SDS011;41776;48.260;8.928;2023-07-29T01:06:41;2.15;;;1.45;;
1725;SDS011;41776;48.260;8.928;2023-07-29T01:09:17;3.22;;;1.30;;
1725;SDS011;41776;48.260;8.928;2023-07-29T01:11:52;1.35;;;1.20;;
1725;SDS011;41776;48.260;8.928;2023-07-29T01:14:27;1.70;;;1.40;;
1725;SDS011;41776;48.260;8.928;2023-07-29T01:17:00;2.55;;;1.65;;
1725;SDS011;41776;48.260;8.928;2023-07-29T01:19:36;4.07;;;1.48;;
1725;SDS011;41776;48.260;8.928;2023-07-29T01:22:11;2.22;;;1.40;;
1725;SDS011;41776;48.260;8.928;2023-07-29T01:24:41;3.60;;;1.50;;
1725;SDS011;41776;48.260;8.928;2023-07-29T01:27:07;1.48;;;1.15;;
1725;SDS011;41776;48.260;8.928;2023-07-29T01:29:34;3.85;;;1.38;;
1725;SDS011;41776;48.260;8.928;2023-07-29T01:32:01;2.05;;;1.30;;
1725;SDS011;41776;48.260;8.928;2023-07-29T01:34:35;6.10;;;1.33;;
1725;SDS011;41776;48.260;8.928;2023-07-29T01:37:08;3.25;;;1.60;;
1725;SDS011;41776;48.260;8.928;2023-07-29T01:39:41;2.85;;;1.65;;
1725;SDS011;41776;48.260;8.928;2023-07-29T01:42:11;6.00;;;1.60;;
1725;SDS011;41776;48.260;8.928;2023-07-29T01:44:38;1.80;;;1.45;;
1725;SDS011;41776;48.260;8.928;2023-07-29T01:47:04;2.17;;;1.40;;
1725;SDS011;41776;48.260;8.928;2023-07-29T01:49:31;2.10;;;1.63;;
1725;SDS011;41776;48.260;8.928;2023-07-29T01:51:57;2.25;;;1.58;;
1725;SDS011;41776;48.260;8.928;2023-07-29T01:54:26;4.20;;;1.52;;
1725;SDS011;41776;48.260;8.928;2023-07-29T01:56:54;2.28;;;1.40;;
1725;SDS011;41776;48.260;8.928;2023-07-29T01:59:20;4.90;;;1.73;;
1725;SDS011;41776;48.260;8.928;2023-07-29T02:01:47;1.90;;;1.50;;
1725;SDS011;41776;48.260;8.928;2023-07-29T02:04:14;3.78;;;1.88;;
1725;SDS011;41776;48.260;8.928;2023-07-29T02:06:40;2.67;;;1.60;;
1725;SDS011;41776;48.260;8.928;2023-07-29T02:09:07;4.28;;;1.85;;
1725;SDS011;41776;48.260;8.928;2023-07-29T02:11:33;6.40;;;2.08;;
1725;SDS011;41776;48.260;8.928;2023-07-29T02:14:01;1.92;;;1.60;;
1725;SDS011;41776;48.260;8.928;2023-07-29T02:16:31;1.70;;;1.42;;
1725;SDS011;41776;48.260;8.928;2023-07-29T02:18:59;3.28;;;1.80;;
1725;SDS011;41776;48.260;8.928;2023-07-29T02:21:26;1.90;;;1.52;;
1725;SDS011;41776;48.260;8.928;2023-07-29T02:23:52;2.92;;;1.70;;
1725;SDS011;41776;48.260;8.928;2023-07-29T02:26:19;2.55;;;2.15;;
1725;SDS011;41776;48.260;8.928;2023-07-29T02:28:46;2.72;;;2.00;;
1725;SDS011;41776;48.260;8.928;2023-07-29T02:31:15;4.88;;;1.80;;
1725;SDS011;41776;48.260;8.928;2023-07-29T02:33:43;7.28;;;1.75;;
1725;SDS011;41776;48.260;8.928;2023-07-29T02:36:10;3.88;;;1.58;;
1725;SDS011;41776;48.260;8.928;2023-07-29T02:38:38;4.18;;;1.80;;
1725;SDS011;41776;48.260;8.928;2023-07-29T02:41:04;1.77;;;1.60;;
1725;SDS011;41776;48.260;8.928;2023-07-29T02:43:31;2.85;;;1.80;;
1725;SDS011;41776;48.260;8.928;2023-07-29T02:46:00;3.88;;;1.88;;
1725;SDS011;41776;48.260;8.928;2023-07-29T02:48:29;3.10;;;1.80;;
1725;SDS011;41776;48.260;8.928;2023-07-29T02:50:57;5.57;;;1.65;;
1725;SDS011;41776;48.260;8.928;2023-07-29T02:53:24;2.88;;;2.10;;
1725;SDS011;41776;48.260;8.928;2023-07-29T02:55:51;3.15;;;2.03;;
1725;SDS011;41776;48.260;8.928;2023-07-29T02:58:18;3.22;;;1.83;;
1725;SDS011;41776;48.260;8.928;2023-07-29T03:00:44;2.40;;;1.67;;
1725;SDS011;41776;48.260;8.928;2023-07-29T03:03:12;3.00;;;1.40;;
1725;SDS011;41776;48.260;8.928;2023-07-29T03:05:43;3.70;;;1.58;;
1725;SDS011;41776;48.260;8.928;2023-07-29T03:08:12;7.30;;;1.70;;
1725;SDS011;41776;48.260;8.928;2023-07-29T03:10:39;3.25;;;1.70;;
1725;SDS011;41776;48.260;8.928;2023-07-29T03:13:05;4.57;;;1.70;;
1725;SDS011;41776;48.260;8.928;2023-07-29T03:15:32;2.55;;;2.00;;
1725;SDS011;41776;48.260;8.928;2023-07-29T03:18:01;4.13;;;1.38;;
1725;SDS011;41776;48.260;8.928;2023-07-29T03:20:28;2.03;;;1.50;;
1725;SDS011;41776;48.260;8.928;2023-07-29T03:22:56;3.63;;;2.15;;
1725;SDS011;41776;48.260;8.928;2023-07-29T03:25:24;2.60;;;1.63;;
1725;SDS011;41776;48.260;8.928;2023-07-29T03:27:54;2.17;;;1.50;;
1725;SDS011;41776;48.260;8.928;2023-07-29T03:30:21;2.22;;;1.52;;
1725;SDS011;41776;48.260;8.928;2023-07-29T03:32:50;5.18;;;1.45;;
1725;SDS011;41776;48.260;8.928;2023-07-29T03:35:17;2.75;;;1.58;;
1725;SDS011;41776;48.260;8.928;2023-07-29T03:37:44;2.30;;;1.50;;
1725;SDS011;41776;48.260;8.928;2023-07-29T03:40:12;1.92;;;1.45;;
1725;SDS011;41776;48.260;8.928;2023-07-29T03:42:38;2.90;;;1.40;;
1725;SDS011;41776;48.260;8.928;2023-07-29T03:45:05;2.45;;;1.70;;
1725;SDS011;41776;48.260;8.928;2023-07-29T03:47:32;5.15;;;1.55;;
1725;SDS011;41776;48.260;8.928;2023-07-29T03:49:59;3.08;;;1.70;;
1725;SDS011;41776;48.260;8.928;2023-07-29T03:52:25;2.38;;;1.48;;
1725;SDS011;41776;48.260;8.928;2023-07-29T03:54:52;2.58;;;1.58;;
1725;SDS011;41776;48.260;8.928;2023-07-29T03:57:24;2.95;;;1.85;;
1725;SDS011;41776;48.260;8.928;2023-07-29T03:59:51;5.32;;;1.50;;
1725;SDS011;41776;48.260;8.928;2023-07-29T04:02:18;3.80;;;1.50;;
1725;SDS011;41776;48.260;8.928;2023-07-29T04:04:44;2.90;;;1.98;;
1725;SDS011;41776;48.260;8.928;2023-07-29T04:07:12;1.90;;;1.55;;
1725;SDS011;41776;48.260;8.928;2023-07-29T04:09:39;5.20;;;1.80;;
1725;SDS011;41776;48.260;8.928;2023-07-29T04:12:05;2.15;;;1.85;;
1725;SDS011;41776;48.260;8.928;2023-07-29T04:14:34;3.08;;;1.40;;
1725;SDS011;41776;48.260;8.928;2023-07-29T04:17:00;3.08;;;1.95;;
1725;SDS011;41776;48.260;8.928;2023-07-29T04:19:27;3.00;;;1.83;;
1725;SDS011;41776;48.260;8.928;2023-07-29T04:21:54;5.68;;;1.77;;
1725;SDS011;41776;48.260;8.928;2023-07-29T04:24:20;2.78;;;1.70;;
1725;SDS011;41776;48.260;8.928;2023-07-29T04:26:50;3.22;;;2.15;;
1725;SDS011;41776;48.260;8.928;2023-07-29T04:29:16;2.78;;;2.00;;
1725;SDS011;41776;48.260;8.928;2023-07-29T04:31:47;3.90;;;2.05;;
1725;SDS011;41776;48.260;8.928;2023-07-29T04:34:13;2.85;;;1.80;;
1725;SDS011;41776;48.260;8.928;2023-07-29T04:36:40;3.95;;;2.00;;
1725;SDS011;41776;48.260;8.928;2023-07-29T04:39:06;4.53;;;2.33;;
1725;SDS011;41776;48.260;8.928;2023-07-29T04:41:33;3.55;;;2.05;;
1725;SDS011;41776;48.260;8.928;2023-07-29T04:43:59;2.47;;;1.85;;
1725;SDS011;41776;48.260;8.928;2023-07-29T04:46:26;2.60;;;1.98;;
1725;SDS011;41776;48.260;8.928;2023-07-29T04:48:57;4.70;;;2.08;;
1725;SDS011;41776;48.260;8.928;2023-07-29T04:51:23;5.15;;;2.05;;
1725;SDS011;41776;48.260;8.928;2023-07-29T04:53:52;3.20;;;1.98;;
1725;SDS011;41776;48.260;8.928;2023-07-29T04:56:19;2.67;;;1.80;;
1725;SDS011;41776;48.260;8.928;2023-07-29T04:58:45;1.95;;;1.48;;
1725;SDS011;41776;48.260;8.928;2023-07-29T05:01:14;3.53;;;1.95;;
1725;SDS011;41776;48.260;8.928;2023-07-29T05:03:43;2.78;;;1.90;;
1725;SDS011;41776;48.260;8.928;2023-07-29T05:06:11;5.53;;;2.00;;
1725;SDS011;41776;48.260;8.928;2023-07-29T05:08:38;1.77;;;1.55;;
1725;SDS011;41776;48.260;8.928;2023-07-29T05:11:05;2.85;;;1.77;;
1725;SDS011;41776;48.260;8.928;2023-07-29T05:13:32;2.47;;;1.73;;
1725;SDS011;41776;48.260;8.928;2023-07-29T05:15:58;2.35;;;1.80;;
1725;SDS011;41776;48.260;8.928;2023-07-29T05:18:25;3.03;;;1.80;;
1725;SDS011;41776;48.260;8.928;2023-07-29T05:20:52;4.05;;;1.80;;
1725;SDS011;41776;48.260;8.928;2023-07-29T05:23:19;3.15;;;1.95;;
1725;SDS011;41776;48.260;8.928;2023-07-29T05:25:46;5.20;;;2.13;;
1725;SDS011;41776;48.260;8.928;2023-07-29T05:28:13;5.28;;;1.75;;
1725;SDS011;41776;48.260;8.928;2023-07-29T05:30:39;4.70;;;2.30;;
1725;SDS011;41776;48.260;8.928;2023-07-29T05:33:06;5.13;;;2.28;;
1725;SDS011;41776;48.260;8.928;2023-07-29T05:35:33;3.53;;;1.83;;
1725;SDS011;41776;48.260;8.928;2023-07-29T05:38:00;4.85;;;1.73;;
1725;SDS011;41776;48.260;8.928;2023-07-29T05:40:29;2.92;;;1.52;;
1725;SDS011;41776;48.260;8.928;2023-07-29T05:42:56;3.10;;;1.85;;
1725;SDS011;41776;48.260;8.928;2023-07-29T05:45:22;3.70;;;1.58;;
1725;SDS011;41776;48.260;8.928;2023-07-29T05:47:49;2.75;;;1.73;;
1725;SDS011;41776;48.260;8.928;2023-07-29T05:50:15;3.10;;;1.90;;
1725;SDS011;41776;48.260;8.928;2023-07-29T05:52:42;3.55;;;1.73;;
1725;SDS011;41776;48.260;8.928;2023-07-29T05:55:08;2.80;;;1.55;;
1725;SDS011;41776;48.260;8.928;2023-07-29T05:57:36;3.60;;;1.83;;
1725;SDS011;41776;48.260;8.928;2023-07-29T06:00:05;2.47;;;1.80;;
1725;SDS011;41776;48.260;8.928;2023-07-29T06:02:32;5.20;;;1.80;;
1725;SDS011;41776;48.260;8.928;2023-07-29T06:04:58;2.75;;;1.73;;
1725;SDS011;41776;48.260;8.928;2023-07-29T06:07:29;2.80;;;2.05;;
1725;SDS011;41776;48.260;8.928;2023-07-29T06:09:57;3.55;;;1.77;;
1725;SDS011;41776;48.260;8.928;2023-07-29T06:12:23;2.67;;;1.63;;
1725;SDS011;41776;48.260;8.928;2023-07-29T06:14:51;2.60;;;1.60;;
1725;SDS011;41776;48.260;8.928;2023-07-29T06:17:18;2.78;;;1.90;;
1725;SDS011;41776;48.260;8.928;2023-07-29T06:19:50;2.55;;;1.73;;
1725;SDS011;41776;48.260;8.928;2023-07-29T06:22:16;2.47;;;1.70;;
1725;SDS011;41776;48.260;8.928;2023-07-29T06:24:43;2.20;;;1.42;;
1725;SDS011;41776;48.260;8.928;2023-07-29T06:27:09;2.97;;;1.60;;
1725;SDS011;41776;48.260;8.928;2023-07-29T06:29:36;3.33;;;2.00;;
1725;SDS011;41776;48.260;8.928;2023-07-29T06:32:04;5.88;;;1.85;;
1725;SDS011;41776;48.260;8.928;2023-07-29T06:34:31;3.42;;;1.30;;
1725;SDS011;41776;48.260;8.928;2023-07-29T06:36:58;2.97;;;1.73;;
1725;SDS011;41776;48.260;8.928;2023-07-29T06:39:24;2.47;;;1.65;;
1725;SDS011;41776;48.260;8.928;2023-07-29T06:41:51;5.80;;;1.88;;
1725;SDS011;41776;48.260;8.928;2023-07-29T06:44:17;2.45;;;1.40;;
1725;SDS011;41776;48.260;8.928;2023-07-29T06:46:44;2.47;;;1.80;;
1725;SDS011;41776;48.260;8.928;2023-07-29T06:49:12;1.80;;;1.13;;
1725;SDS011;41776;48.260;8.928;2023-07-29T06:51:38;2.22;;;1.40;;
1725;SDS011;41776;48.260;8.928;2023-07-29T06:54:05;2.13;;;1.48;;
1725;SDS011;41776;48.260;8.928;2023-07-29T06:56:32;2.80;;;1.42;;
1725;SDS011;41776;48.260;8.928;2023-07-29T06:58:58;2.08;;;1.35;;
1725;SDS011;41776;48.260;8.928;2023-07-29T07:01:25;2.47;;;1.52;;
1725;SDS011;41776;48.260;8.928;2023-07-29T07:03:51;2.13;;;1.33;;
1725;SDS011;41776;48.260;8.928;2023-07-29T07:06:20;5.07;;;1.50;;
1725;SDS011;41776;48.260;8.928;2023-07-29T07:08:49;4.82;;;1.70;;
1725;SDS011;41776;48.260;8.928;2023-07-29T07:11:16;1.73;;;1.27;;
1725;SDS011;41776;48.260;8.928;2023-07-29T07:13:44;2.13;;;1.58;;
1725;SDS011;41776;48.260;8.928;2023-07-29T07:16:10;2.20;;;1.27;;
1725;SDS011;41776;48.260;8.928;2023-07-29T07:18:37;2.17;;;1.35;;
1725;SDS011;41776;48.260;8.928;2023-07-29T07:21:03;2.35;;;1.52;;
1725;SDS011;41776;48.260;8.928;2023-07-29T07:23:31;2.63;;;1.67;;
1725;SDS011;41776;48.260;8.928;2023-07-29T07:25:58;4.45;;;1.50;;
1725;SDS011;41776;48.260;8.928;2023-07-29T07:28:24;3.80;;;1.92;;
1725;SDS011;41776;48.260;8.928;2023-07-29T07:30:51;7.10;;;1.83;;
1725;SDS011;41776;48.260;8.928;2023-07-29T07:33:17;2.17;;;1.63;;
1725;SDS011;41776;48.260;8.928;2023-07-29T07:35:44;1.80;;;1.40;;
1725;SDS011;41776;48.260;8.928;2023-07-29T07:38:11;2.45;;;1.60;;
1725;SDS011;41776;48.260;8.928;2023-07-29T07:40:38;2.63;;;1.75;;
1725;SDS011;41776;48.260;8.928;2023-07-29T07:43:05;2.90;;;1.95;;
1725;SDS011;41776;48.260;8.928;2023-07-29T07:45:42;2.75;;;1.65;;
1725;SDS011;41776;48.260;8.928;2023-07-29T07:48:08;3.30;;;1.90;;
1725;SDS011;41776;48.260;8.928;2023-07-29T07:50:38;4.15;;;2.25;;
1725;SDS011;41776;48.260;8.928;2023-07-29T07:53:05;2.53;;;1.67;;
1725;SDS011;41776;48.260;8.928;2023-07-29T07:55:31;2.08;;;1.75;;
1725;SDS011;41776;48.260;8.928;2023-07-29T07:57:59;5.78;;;2.25;;
1725;SDS011;41776;48.260;8.928;2023-07-29T08:00:26;9.23;;;2.20;;
1725;SDS011;41776;48.260;8.928;2023-07-29T08:02:52;4.68;;;2.60;;
1725;SDS011;41776;48.260;8.928;2023-07-29T08:05:19;3.63;;;2.22;;
1725;SDS011;41776;48.260;8.928;2023-07-29T08:07:45;3.70;;;2.53;;
1725;SDS011;41776;48.260;8.928;2023-07-29T08:10:12;5.40;;;2.58;;
1725;SDS011;41776;48.260;8.928;2023-07-29T08:12:38;3.25;;;2.58;;
1725;SDS011;41776;48.260;8.928;2023-07-29T08:15:07;3.65;;;2.50;;
1725;SDS011;41776;48.260;8.928;2023-07-29T08:17:33;5.78;;;2.33;;
1725;SDS011;41776;48.260;8.928;2023-07-29T08:20:00;3.42;;;2.30;;
1725;SDS011;41776;48.260;8.928;2023-07-29T08:22:26;4.18;;;2.30;;
1725;SDS011;41776;48.260;8.928;2023-07-29T08:24:53;3.05;;;2.08;;
1725;SDS011;41776;48.260;8.928;2023-07-29T08:27:19;3.55;;;2.03;;
1725;SDS011;41776;48.260;8.928;2023-07-29T08:29:46;2.38;;;1.85;;
1725;SDS011;41776;48.260;8.928;2023-07-29T08:32:14;3.72;;;2.20;;
1725;SDS011;41776;48.260;8.928;2023-07-29T08:34:40;2.13;;;1.77;;
1725;SDS011;41776;48.260;8.928;2023-07-29T08:37:07;2.75;;;2.03;;
1725;SDS011;41776;48.260;8.928;2023-07-29T08:39:33;2.13;;;1.58;;
1725;SDS011;41776;48.260;8.928;2023-07-29T08:42:01;5.15;;;1.92;;
1725;SDS011;41776;48.260;8.928;2023-07-29T08:44:31;4.07;;;1.70;;
1725;SDS011;41776;48.260;8.928;2023-07-29T08:47:02;3.28;;;1.80;;
1725;SDS011;41776;48.260;8.928;2023-07-29T08:49:30;7.63;;;1.80;;
1725;SDS011;41776;48.260;8.928;2023-07-29T08:51:58;3.58;;;1.65;;
1725;SDS011;41776;48.260;8.928;2023-07-29T08:54:25;3.08;;;1.80;;
1725;SDS011;41776;48.260;8.928;2023-07-29T08:56:52;3.13;;;1.60;;
1725;SDS011;41776;48.260;8.928;2023-07-29T08:59:19;4.75;;;1.60;;
1725;SDS011;41776;48.260;8.928;2023-07-29T09:01:46;4.57;;;1.80;;
1725;SDS011;41776;48.260;8.928;2023-07-29T09:04:13;4.70;;;2.00;;
1725;SDS011;41776;48.260;8.928;2023-07-29T09:06:41;2.40;;;1.60;;
1725;SDS011;41776;48.260;8.928;2023-07-29T09:09:09;2.58;;;1.60;;
1725;SDS011;41776;48.260;8.928;2023-07-29T09:11:35;3.35;;;1.90;;
1725;SDS011;41776;48.260;8.928;2023-07-29T09:14:02;3.70;;;1.77;;
1725;SDS011;41776;48.260;8.928;2023-07-29T09:16:29;3.75;;;1.88;;
1725;SDS011;41776;48.260;8.928;2023-07-29T09:18:56;2.45;;;1.70;;
1725;SDS011;41776;48.260;8.928;2023-07-29T09:21:28;5.78;;;1.67;;
1725;SDS011;41776;48.260;8.928;2023-07-29T09:23:57;2.70;;;1.83;;
1725;SDS011;41776;48.260;8.928;2023-07-29T09:26:29;2.20;;;1.50;;
1725;SDS011;41776;48.260;8.928;2023-07-29T09:28:56;2.80;;;1.67;;
1725;SDS011;41776;48.260;8.928;2023-07-29T09:31:24;2.45;;;1.65;;
1725;SDS011;41776;48.260;8.928;2023-07-29T09:33:55;2.45;;;1.60;;
1725;SDS011;41776;48.260;8.928;2023-07-29T09:36:22;4.47;;;1.80;;
1725;SDS011;41776;48.260;8.928;2023-07-29T09:38:50;4.07;;;1.67;;
1725;SDS011;41776;48.260;8.928;2023-07-29T09:41:20;6.43;;;2.05;;
1725;SDS011;41776;48.260;8.928;2023-07-29T09:43:48;4.22;;;2.60;;
1725;SDS011;41776;48.260;8.928;2023-07-29T09:46:22;3.53;;;2.15;;
1725;SDS011;41776;48.260;8.928;2023-07-29T09:48:49;3.03;;;2.55;;
1725;SDS011;41776;48.260;8.928;2023-07-29T09:51:18;3.72;;;2.47;;
1725;SDS011;41776;48.260;8.928;2023-07-29T09:53:46;5.25;;;2.67;;
1725;SDS011;41776;48.260;8.928;2023-07-29T09:56:14;5.97;;;2.20;;
1725;SDS011;41776;48.260;8.928;2023-07-29T09:58:43;5.53;;;1.90;;
1725;SDS011;41776;48.260;8.928;2023-07-29T10:01:10;7.43;;;2.85;;
1725;SDS011;41776;48.260;8.928;2023-07-29T10:03:37;4.90;;;2.60;;
1725;SDS011;41776;48.260;8.928;2023-07-29T10:06:05;7.05;;;2.85;;
1725;SDS011;41776;48.260;8.928;2023-07-29T10:08:32;4.70;;;2.95;;
1725;SDS011;41776;48.260;8.928;2023-07-29T10:11:03;5.78;;;2.80;;
1725;SDS011;41776;48.260;8.928;2023-07-29T10:13:31;5.72;;;3.20;;
1725;SDS011;41776;48.260;8.928;2023-07-29T10:16:00;4.13;;;2.83;;
1725;SDS011;41776;48.260;8.928;2023-07-29T10:18:30;4.22;;;2.97;;
1725;SDS011;41776;48.260;8.928;2023-07-29T10:20:58;5.28;;;3.03;;
1725;SDS011;41776;48.260;8.928;2023-07-29T10:23:28;5.20;;;3.00;;
1725;SDS011;41776;48.260;8.928;2023-07-29T10:26:02;5.60;;;2.20;;
1725;SDS011;41776;48.260;8.928;2023-07-29T10:28:31;4.43;;;2.17;;
1725;SDS011;41776;48.260;8.928;2023-07-29T10:31:01;3.20;;;2.17;;
1725;SDS011;41776;48.260;8.928;2023-07-29T10:33:30;7.10;;;2.38;;
1725;SDS011;41776;48.260;8.928;2023-07-29T10:35:59;3.15;;;2.13;;
1725;SDS011;41776;48.260;8.928;2023-07-29T10:38:27;5.68;;;2.35;;
1725;SDS011;41776;48.260;8.928;2023-07-29T10:40:54;3.55;;;2.00;;
1725;SDS011;41776;48.260;8.928;2023-07-29T10:43:24;5.13;;;2.13;;
1725;SDS011;41776;48.260;8.928;2023-07-29T10:45:51;3.78;;;2.25;;
1725;SDS011;41776;48.260;8.928;2023-07-29T10:51:21;3.85;;;2.08;;
1725;SDS011;41776;48.260;8.928;2023-07-29T10:53:51;2.65;;;1.73;;
1725;SDS011;41776;48.260;8.928;2023-07-29T10:56:24;1.90;;;1.50;;
1725;SDS011;41776;48.260;8.928;2023-07-29T10:58:54;2.38;;;1.65;;
1725;SDS011;41776;48.260;8.928;2023-07-29T11:01:26;2.65;;;1.50;;
1725;SDS011;41776;48.260;8.928;2023-07-29T11:04:02;3.75;;;1.65;;
1725;SDS011;41776;48.260;8.928;2023-07-29T11:07:01;4.20;;;1.80;;
1725;SDS011;41776;48.260;8.928;2023-07-29T11:09:52;3.38;;;1.60;;
1725;SDS011;41776;48.260;8.928;2023-07-29T11:12:38;3.15;;;1.70;;
1725;SDS011;41776;48.260;8.928;2023-07-29T11:17:56;2.60;;;1.60;;
1725;SDS011;41776;48.260;8.928;2023-07-29T11:20:25;2.47;;;1.58;;
1725;SDS011;41776;48.260;8.928;2023-07-29T11:22:53;2.00;;;1.63;;
1725;SDS011;41776;48.260;8.928;2023-07-29T11:25:20;2.90;;;1.60;;
1725;SDS011;41776;48.260;8.928;2023-07-29T11:27:49;3.78;;;1.73;;
1725;SDS011;41776;48.260;8.928;2023-07-29T11:30:17;2.67;;;1.52;;
1725;SDS011;41776;48.260;8.928;2023-07-29T11:32:44;2.63;;;1.70;;
1725;SDS011;41776;48.260;8.928;2023-07-29T11:35:12;3.22;;;1.80;;
1725;SDS011;41776;48.260;8.928;2023-07-29T11:37:42;2.33;;;1.70;;
1725;SDS011;41776;48.260;8.928;2023-07-29T11:40:13;3.15;;;1.80;;
1725;SDS011;41776;48.260;8.928;2023-07-29T11:42:41;6.65;;;1.60;;
1725;SDS011;41776;48.260;8.928;2023-07-29T11:45:08;2.63;;;1.50;;
1725;SDS011;41776;48.260;8.928;2023-07-29T11:47:35;3.63;;;1.83;;
1725;SDS011;41776;48.260;8.928;2023-07-29T11:50:03;2.35;;;1.30;;
1725;SDS011;41776;48.260;8.928;2023-07-29T11:52:31;3.60;;;1.55;;
1725;SDS011;41776;48.260;8.928;2023-07-29T11:55:00;2.03;;;1.45;;
1725;SDS011;41776;48.260;8.928;2023-07-29T11:57:27;3.53;;;1.20;;
1725;SDS011;41776;48.260;8.928;2023-07-29T11:59:54;2.72;;;1.40;;
1725;SDS011;41776;48.260;8.928;2023-07-29T12:02:21;1.90;;;1.30;;
1725;SDS011;41776;48.260;8.928;2023-07-29T12:04:49;1.80;;;1.25;;
1725;SDS011;41776;48.260;8.928;2023-07-29T12:07:16;1.58;;;1.15;;
1725;SDS011;41776;48.260;8.928;2023-07-29T12:09:43;2.15;;;1.50;;
1725;SDS011;41776;48.260;8.928;2023-07-29T12:12:13;1.85;;;1.30;;
1725;SDS011;41776;48.260;8.928;2023-07-29T12:14:43;3.70;;;1.60;;
1725;SDS011;41776;48.260;8.928;2023-07-29T12:17:10;2.35;;;1.30;;
1725;SDS011;41776;48.260;8.928;2023-07-29T12:19:37;1.80;;;1.33;;
1725;SDS011;41776;48.260;8.928;2023-07-29T12:22:05;2.30;;;1.67;;
1725;SDS011;41776;48.260;8.928;2023-07-29T12:24:33;1.45;;;1.10;;
1725;SDS011;41776;48.260;8.928;2023-07-29T12:27:02;1.48;;;1.15;;
1725;SDS011;41776;48.260;8.928;2023-07-29T12:29:30;2.17;;;1.38;;
1725;SDS011;41776;48.260;8.928;2023-07-29T12:31:57;1.60;;;1.20;;
1725;SDS011;41776;48.260;8.928;2023-07-29T12:34:25;2.58;;;1.30;;
1725;SDS011;41776;48.260;8.928;2023-07-29T12:36:54;1.90;;;1.30;;
1725;SDS011;41776;48.260;8.928;2023-07-29T12:39:22;2.15;;;1.27;;
1725;SDS011;41776;48.260;8.928;2023-07-29T12:41:50;2.05;;;1.40;;
1725;SDS011;41776;48.260;8.928;2023-07-29T12:44:18;1.92;;;1.38;;
1725;SDS011;41776;48.260;8.928;2023-07-29T12:46:46;4.15;;;1.40;;
1725;SDS011;41776;48.260;8.928;2023-07-29T12:49:12;2.45;;;1.50;;
1725;SDS011;41776;48.260;8.928;2023-07-29T12:51:39;2.28;;;1.50;;
1725;SDS011;41776;48.260;8.928;2023-07-29T12:54:05;1.95;;;1.30;;
1725;SDS011;41776;48.260;8.928;2023-07-29T12:56:32;1.90;;;1.35;;
1725;SDS011;41776;48.260;8.928;2023-07-29T12:58:59;2.05;;;1.40;;
1725;SDS011;41776;48.260;8.928;2023-07-29T13:01:26;1.40;;;1.15;;
1725;SDS011;41776;48.260;8.928;2023-07-29T13:03:55;2.13;;;1.30;;
1725;SDS011;41776;48.260;8.928;2023-07-29T13:06:22;3.53;;;1.40;;
1725;SDS011;41776;48.260;8.928;2023-07-29T13:08:49;2.22;;;1.17;;
1725;SDS011;41776;48.260;8.928;2023-07-29T13:11:15;1.52;;;0.98;;
1725;SDS011;41776;48.260;8.928;2023-07-29T13:13:45;1.77;;;1.20;;
1725;SDS011;41776;48.260;8.928;2023-07-29T13:16:11;2.72;;;1.65;;
1725;SDS011;41776;48.260;8.928;2023-07-29T13:18:38;2.30;;;1.08;;
1725;SDS011;41776;48.260;8.928;2023-07-29T13:21:06;2.25;;;1.25;;
1725;SDS011;41776;48.260;8.928;2023-07-29T13:23:33;1.70;;;1.40;;
1725;SDS011;41776;48.260;8.928;2023-07-29T13:25:59;2.20;;;1.30;;
1725;SDS011;41776;48.260;8.928;2023-07-29T13:28:26;2.03;;;1.00;;
1725;SDS011;41776;48.260;8.928;2023-07-29T13:30:53;3.47;;;1.40;;
1725;SDS011;41776;48.260;8.928;2023-07-29T13:33:22;3.33;;;1.60;;
1725;SDS011;41776;48.260;8.928;2023-07-29T13:35:48;1.92;;;1.30;;
1725;SDS011;41776;48.260;8.928;2023-07-29T13:38:16;1.45;;;1.23;;
1725;SDS011;41776;48.260;8.928;2023-07-29T13:40:43;2.47;;;1.33;;
1725;SDS011;41776;48.260;8.928;2023-07-29T13:43:09;1.98;;;1.50;;
1725;SDS011;41776;48.260;8.928;2023-07-29T13:45:36;2.05;;;1.20;;
1725;SDS011;41776;48.260;8.928;2023-07-29T13:48:02;2.20;;;1.50;;
1725;SDS011;41776;48.260;8.928;2023-07-29T13:50:29;2.13;;;1.10;;
1725;SDS011;41776;48.260;8.928;2023-07-29T13:52:56;2.28;;;1.30;;
1725;SDS011;41776;48.260;8.928;2023-07-29T13:55:24;1.92;;;1.30;;
1725;SDS011;41776;48.260;8.928;2023-07-29T13:57:51;2.97;;;1.25;;
1725;SDS011;41776;48.260;8.928;2023-07-29T14:00:18;2.58;;;1.10;;
1725;SDS011;41776;48.260;8.928;2023-07-29T14:02:45;1.17;;;1.05;;
1725;SDS011;41776;48.260;8.928;2023-07-29T14:05:11;2.78;;;1.70;;
1725;SDS011;41776;48.260;8.928;2023-07-29T14:07:39;2.92;;;1.17;;
1725;SDS011;41776;48.260;8.928;2023-07-29T14:10:06;5.03;;;1.60;;
1725;SDS011;41776;48.260;8.928;2023-07-29T14:12:34;1.60;;;1.33;;
1725;SDS011;41776;48.260;8.928;2023-07-29T14:15:01;1.33;;;1.20;;
1725;SDS011;41776;48.260;8.928;2023-07-29T14:17:27;2.47;;;1.25;;
1725;SDS011;41776;48.260;8.928;2023-07-29T14:19:54;8.75;;;1.52;;
1725;SDS011;41776;48.260;8.928;2023-07-29T14:22:21;2.50;;;1.25;;
1725;SDS011;41776;48.260;8.928;2023-07-29T14:24:47;2.20;;;1.30;;
1725;SDS011;41776;48.260;8.928;2023-07-29T14:27:14;2.08;;;1.40;;
1725;SDS011;41776;48.260;8.928;2023-07-29T14:29:42;2.53;;;1.70;;
1725;SDS011;41776;48.260;8.928;2023-07-29T14:32:09;1.67;;;1.33;;
1725;SDS011;41776;48.260;8.928;2023-07-29T14:34:36;2.50;;;1.63;;
1725;SDS011;41776;48.260;8.928;2023-07-29T14:37:02;3.47;;;1.40;;
1725;SDS011;41776;48.260;8.928;2023-07-29T14:39:29;3.70;;;1.48;;
1725;SDS011;41776;48.260;8.928;2023-07-29T14:41:55;1.67;;;1.17;;
1725;SDS011;41776;48.260;8.928;2023-07-29T14:44:22;5.90;;;1.50;;
1725;SDS011;41776;48.260;8.928;2023-07-29T14:46:50;4.25;;;1.45;;
1725;SDS011;41776;48.260;8.928;2023-07-29T14:49:16;3.15;;;1.40;;
1725;SDS011;41776;48.260;8.928;2023-07-29T14:51:43;2.60;;;1.50;;
1725;SDS011;41776;48.260;8.928;2023-07-29T14:54:09;3.10;;;1.80;;
1725;SDS011;41776;48.260;8.928;2023-07-29T14:56:36;2.75;;;1.75;;
1725;SDS011;41776;48.260;8.928;2023-07-29T14:59:02;8.50;;;1.88;;
1725;SDS011;41776;48.260;8.928;2023-07-29T15:01:29;3.47;;;1.70;;
1725;SDS011;41776;48.260;8.928;2023-07-29T15:03:57;4.32;;;1.83;;
1725;SDS011;41776;48.260;8.928;2023-07-29T15:06:23;6.95;;;2.00;;
1725;SDS011;41776;48.260;8.928;2023-07-29T15:08:50;2.85;;;1.90;;